createdAt,value
2019-03-09T00:00:52.600Z,0.00
2019-03-09T00:01:52.769Z,0.00
2019-03-09T00:02:52.993Z,0.00
2019-03-09T00:03:53.182Z,0.00
2019-03-09T00:04:53.384Z,0.00
2019-03-09T00:05:53.558Z,0.00
2019-03-09T00:06:53.754Z,0.00
2019-03-09T00:07:53.952Z,0.00
2019-03-09T00:08:54.158Z,0.00
2019-03-09T00:09:54.362Z,0.00
2019-03-09T00:10:54.549Z,0.00
2019-03-09T00:11:54.761Z,0.00
2019-03-09T00:12:54.927Z,0.00
2019-03-09T00:13:55.187Z,0.00
2019-03-09T00:14:55.263Z,0.00
2019-03-09T00:15:55.491Z,0.00
2019-03-09T00:16:55.674Z,0.00
2019-03-09T00:17:55.860Z,0.00
2019-03-09T00:18:56.045Z,0.00
2019-03-09T00:19:56.251Z,0.00
2019-03-09T00:20:56.458Z,0.00
2019-03-09T00:21:56.662Z,0.00
2019-03-09T00:22:56.847Z,0.00
2019-03-09T00:23:57.045Z,0.00
2019-03-09T00:24:57.241Z,0.00
2019-03-09T00:25:57.426Z,0.00
2019-03-09T00:26:57.629Z,0.00
2019-03-09T00:27:57.816Z,0.00
2019-03-09T00:28:58.013Z,0.00
2019-03-09T00:29:58.212Z,0.00
2019-03-09T00:30:58.422Z,0.00
2019-03-09T00:31:58.499Z,0.00
2019-03-09T00:32:59.694Z,0.00
2019-03-09T00:33:58.847Z,0.00
2019-03-09T00:34:59.110Z,0.00
2019-03-09T00:35:59.204Z,0.00
2019-03-09T00:36:59.398Z,0.00
2019-03-09T00:37:59.601Z,0.00
2019-03-09T00:38:59.800Z,0.00
2019-03-09T00:39:59.970Z,0.00
2019-03-09T00:41:00.220Z,0.00
2019-03-09T00:42:00.334Z,0.00
2019-03-09T00:43:00.585Z,0.00
2019-03-09T00:44:00.818Z,0.00
2019-03-09T00:45:01.055Z,0.00
2019-03-09T00:46:01.279Z,0.00
2019-03-09T00:47:01.510Z,0.00
2019-03-09T00:48:01.788Z,0.00
2019-03-09T00:49:01.883Z,0.00
2019-03-09T00:50:02.093Z,0.00
2019-03-09T00:51:02.275Z,0.00
2019-03-09T00:52:02.514Z,0.00
2019-03-09T00:53:02.981Z,0.00
2019-03-09T00:54:03.035Z,0.00
2019-03-09T00:55:03.086Z,0.00
2019-03-09T00:56:03.256Z,0.00
2019-03-09T00:57:03.440Z,0.00
2019-03-09T00:58:03.619Z,0.00
2019-03-09T00:59:03.797Z,0.00
2019-03-09T01:00:03.978Z,0.00
2019-03-09T01:01:04.161Z,0.00
2019-03-09T01:02:04.366Z,0.00
2019-03-09T01:03:04.605Z,0.00
2019-03-09T01:04:04.700Z,0.00
2019-03-09T01:05:04.911Z,0.00
2019-03-09T01:06:05.029Z,0.00
2019-03-09T01:07:05.234Z,0.00
2019-03-09T01:08:05.561Z,0.00
2019-03-09T01:09:05.624Z,0.00
2019-03-09T01:10:05.827Z,0.00
2019-03-09T01:11:06.040Z,0.00
2019-03-09T01:12:06.320Z,0.00
2019-03-09T01:13:06.382Z,0.00
2019-03-09T01:14:06.630Z,0.00
2019-03-09T01:15:06.809Z,0.00
2019-03-09T01:16:07.013Z,0.00
2019-03-09T01:17:07.415Z,0.00
2019-03-09T01:18:07.337Z,0.00
2019-03-09T01:19:07.553Z,0.00
2019-03-09T01:20:07.642Z,0.00
2019-03-09T01:21:07.840Z,0.00
2019-03-09T01:22:08.041Z,0.00
2019-03-09T01:23:08.249Z,0.00
2019-03-09T01:24:08.443Z,0.00
2019-03-09T01:25:08.657Z,0.00
2019-03-09T01:26:08.931Z,0.00
2019-03-09T01:27:08.980Z,0.00
2019-03-09T01:28:09.161Z,0.00
2019-03-09T01:29:09.409Z,0.00
2019-03-09T01:30:09.622Z,0.00
2019-03-09T01:31:09.837Z,0.00
2019-03-09T01:32:10.047Z,0.00
2019-03-09T01:33:10.358Z,0.00
2019-03-09T01:34:10.436Z,0.00
2019-03-09T01:35:10.635Z,0.00
2019-03-09T01:36:10.847Z,0.00
2019-03-09T01:37:11.580Z,0.00
2019-03-09T01:38:11.273Z,0.00
2019-03-09T01:39:11.545Z,0.00
2019-03-09T01:40:11.603Z,0.00
2019-03-09T01:41:11.813Z,0.00
2019-03-09T01:42:12.037Z,0.00
2019-03-09T01:43:12.220Z,0.00
2019-03-09T01:44:12.400Z,0.00
2019-03-09T01:45:12.572Z,0.00
2019-03-09T01:46:12.781Z,0.00
2019-03-09T01:47:12.980Z,0.00
2019-03-09T01:48:13.138Z,0.00
2019-03-09T01:49:13.322Z,0.00
2019-03-09T01:50:13.524Z,0.00
2019-03-09T01:51:13.747Z,0.00
2019-03-09T01:52:13.952Z,0.00
2019-03-09T01:53:14.151Z,0.00
2019-03-09T01:54:14.338Z,0.00
2019-03-09T01:55:14.525Z,0.00
2019-03-09T01:56:14.741Z,0.00
2019-03-09T01:57:14.914Z,0.00
2019-03-09T01:58:16.154Z,0.00
2019-03-09T01:59:15.344Z,0.00
2019-03-09T02:00:15.526Z,0.00
2019-03-09T02:01:15.710Z,0.00
2019-03-09T02:02:15.902Z,0.00
2019-03-09T02:03:16.090Z,0.00
2019-03-09T02:04:16.268Z,0.00
2019-03-09T02:05:16.428Z,0.00
2019-03-09T02:06:16.650Z,0.00
2019-03-09T02:07:16.844Z,0.00
2019-03-09T02:08:17.112Z,0.00
2019-03-09T02:09:17.211Z,0.00
2019-03-09T02:10:17.422Z,0.00
2019-03-09T02:11:17.648Z,0.00
2019-03-09T02:12:17.892Z,0.00
2019-03-09T02:13:17.949Z,0.00
2019-03-09T02:14:18.151Z,0.00
2019-03-09T02:15:18.334Z,0.00
2019-03-09T02:16:18.569Z,0.00
2019-03-09T02:17:18.661Z,0.00
2019-03-09T02:18:18.845Z,0.00
2019-03-09T02:19:19.025Z,0.00
2019-03-09T02:20:19.205Z,0.00
2019-03-09T02:21:19.419Z,0.00
2019-03-09T02:22:19.631Z,0.00
2019-03-09T02:23:19.822Z,0.00
2019-03-09T02:24:20.000Z,0.00
2019-03-09T02:25:20.190Z,0.00
2019-03-09T02:26:20.434Z,0.00
2019-03-09T02:27:20.511Z,0.00
2019-03-09T02:28:20.732Z,0.00
2019-03-09T02:29:20.948Z,0.00
2019-03-09T02:30:21.154Z,0.00
2019-03-09T02:31:21.402Z,0.00
2019-03-09T02:32:21.620Z,0.00
2019-03-09T02:33:21.810Z,0.00
2019-03-09T02:34:22.009Z,0.00
2019-03-09T02:35:23.251Z,0.00
2019-03-09T02:36:22.473Z,0.00
2019-03-09T02:37:22.856Z,0.00
2019-03-09T02:38:22.804Z,0.00
2019-03-09T02:39:22.978Z,0.00
2019-03-09T02:40:23.409Z,0.00
2019-03-09T02:41:24.375Z,0.00
2019-03-09T02:42:23.534Z,0.00
2019-03-09T02:43:23.716Z,0.00
2019-03-09T02:44:23.956Z,0.00
2019-03-09T02:45:24.193Z,0.00
2019-03-09T02:46:24.302Z,0.00
2019-03-09T02:47:24.487Z,0.00
2019-03-09T02:48:24.647Z,0.00
2019-03-09T02:49:24.834Z,0.00
2019-03-09T02:50:25.044Z,0.00
2019-03-09T02:51:25.230Z,0.00
2019-03-09T02:52:25.515Z,0.00
2019-03-09T02:53:25.649Z,0.00
2019-03-09T02:54:25.744Z,0.00
2019-03-09T02:55:25.945Z,0.00
2019-03-09T02:56:26.168Z,0.00
2019-03-09T02:57:26.388Z,0.00
2019-03-09T02:58:26.763Z,0.00
2019-03-09T02:59:26.981Z,0.00
2019-03-09T03:00:27.006Z,0.00
2019-03-09T03:01:27.048Z,0.00
2019-03-09T03:02:27.227Z,0.00
2019-03-09T03:03:27.431Z,0.00
2019-03-09T03:04:27.647Z,0.00
2019-03-09T03:05:27.895Z,0.00
2019-03-09T03:06:28.096Z,0.00
2019-03-09T03:07:28.346Z,0.00
2019-03-09T03:08:28.567Z,0.00
2019-03-09T03:09:28.847Z,0.00
2019-03-09T03:10:28.993Z,0.00
2019-03-09T03:11:29.087Z,0.00
2019-03-09T03:12:29.293Z,0.00
2019-03-09T03:13:29.516Z,0.00
2019-03-09T03:14:29.755Z,0.00
2019-03-09T03:15:30.020Z,0.00
2019-03-09T03:16:30.110Z,0.00
2019-03-09T03:17:30.310Z,0.00
2019-03-09T03:18:30.553Z,0.00
2019-03-09T03:19:30.791Z,0.00
2019-03-09T03:20:31.084Z,0.00
2019-03-09T03:21:31.182Z,0.00
2019-03-09T03:22:31.250Z,0.00
2019-03-09T03:23:31.528Z,0.00
2019-03-09T03:24:31.695Z,0.00
2019-03-09T03:25:32.022Z,0.00
2019-03-09T03:26:32.069Z,0.00
2019-03-09T03:27:32.341Z,0.00
2019-03-09T03:28:32.430Z,0.00
2019-03-09T03:29:32.657Z,0.00
2019-03-09T03:30:32.870Z,0.00
2019-03-09T03:31:33.100Z,0.00
2019-03-09T03:32:33.234Z,0.00
2019-03-09T03:33:33.561Z,0.00
2019-03-09T03:34:33.636Z,0.00
2019-03-09T03:35:33.905Z,0.00
2019-03-09T03:36:34.003Z,0.00
2019-03-09T03:37:34.213Z,0.00
2019-03-09T03:38:34.586Z,0.00
2019-03-09T03:39:34.667Z,0.00
2019-03-09T03:40:34.962Z,0.00
2019-03-09T03:41:35.077Z,0.00
2019-03-09T03:42:35.293Z,0.00
2019-03-09T03:43:35.505Z,0.00
2019-03-09T03:44:35.767Z,0.00
2019-03-09T03:45:35.815Z,0.00
2019-03-09T03:46:36.026Z,0.00
2019-03-09T03:47:36.244Z,0.00
2019-03-09T03:48:36.507Z,0.00
2019-03-09T03:49:36.638Z,0.00
2019-03-09T03:50:36.809Z,0.00
2019-03-09T03:51:37.024Z,0.00
2019-03-09T03:52:37.201Z,0.00
2019-03-09T03:53:37.408Z,0.00
2019-03-09T03:54:37.563Z,0.00
2019-03-09T03:55:37.746Z,0.00
2019-03-09T03:56:37.965Z,0.00
2019-03-09T03:57:38.126Z,0.00
2019-03-09T03:58:38.350Z,0.00
2019-03-09T03:59:38.557Z,0.00
2019-03-09T04:00:38.668Z,0.00
2019-03-09T04:01:38.909Z,0.00
2019-03-09T04:02:39.131Z,0.00
2019-03-09T04:03:39.332Z,0.00
2019-03-09T04:04:39.510Z,0.00
2019-03-09T04:05:39.765Z,0.00
2019-03-09T04:06:39.838Z,0.00
2019-03-09T04:07:40.032Z,0.00
2019-03-09T04:08:40.319Z,0.00
2019-03-09T04:09:40.410Z,0.00
2019-03-09T04:10:40.672Z,0.00
2019-03-09T04:11:40.847Z,0.00
2019-03-09T04:12:41.031Z,0.00
2019-03-09T04:13:41.342Z,0.00
2019-03-09T04:14:41.515Z,0.00
2019-03-09T04:15:42.682Z,0.00
2019-03-09T04:16:41.751Z,0.00
2019-03-09T04:17:41.964Z,0.00
2019-03-09T04:18:42.230Z,0.00
2019-03-09T04:19:42.341Z,0.00
2019-03-09T04:20:42.690Z,0.00
2019-03-09T04:21:42.741Z,0.00
2019-03-09T04:22:42.898Z,0.00
2019-03-09T04:23:43.154Z,0.00
2019-03-09T04:24:43.251Z,0.00
2019-03-09T04:25:43.453Z,0.00
2019-03-09T04:26:43.715Z,0.00
2019-03-09T04:27:43.777Z,0.00
2019-03-09T04:28:43.966Z,0.00
2019-03-09T04:29:44.186Z,0.00
2019-03-09T04:30:44.664Z,0.00
2019-03-09T04:31:44.637Z,0.00
2019-03-09T04:32:44.844Z,0.00
2019-03-09T04:33:45.044Z,0.00
2019-03-09T04:34:45.234Z,0.00
2019-03-09T04:35:45.621Z,0.00
2019-03-09T04:36:45.681Z,0.00
2019-03-09T04:37:45.880Z,0.00
2019-03-09T04:38:46.096Z,0.00
2019-03-09T04:39:46.290Z,0.00
2019-03-09T04:40:46.507Z,0.00
2019-03-09T04:41:46.675Z,0.00
2019-03-09T04:42:46.822Z,0.00
2019-03-09T04:43:46.996Z,0.00
2019-03-09T04:44:47.200Z,0.00
2019-03-09T04:45:47.434Z,0.00
2019-03-09T04:46:47.598Z,0.00
2019-03-09T04:47:47.758Z,0.00
2019-03-09T04:48:48.142Z,0.00
2019-03-09T04:49:48.093Z,0.00
2019-03-09T04:50:48.409Z,0.00
2019-03-09T04:51:48.424Z,0.00
2019-03-09T04:52:48.594Z,0.00
2019-03-09T04:53:48.753Z,0.00
2019-03-09T04:54:48.929Z,0.00
2019-03-09T04:55:49.104Z,0.00
2019-03-09T04:56:49.339Z,0.00
2019-03-09T04:57:49.506Z,0.00
2019-03-09T04:58:49.675Z,0.00
2019-03-09T04:59:49.898Z,0.00
2019-03-09T05:00:50.051Z,0.00
2019-03-09T05:01:50.188Z,0.00
2019-03-09T05:02:50.309Z,0.00
2019-03-09T05:03:50.486Z,0.00
2019-03-09T05:04:50.648Z,0.00
2019-03-09T05:05:50.788Z,0.00
2019-03-09T05:06:50.944Z,0.00
2019-03-09T05:07:51.179Z,0.00
2019-03-09T05:08:51.362Z,0.00
2019-03-09T05:09:51.530Z,0.00
2019-03-09T05:10:51.684Z,0.00
2019-03-09T05:11:51.835Z,0.00
2019-03-09T05:12:52.019Z,0.00
2019-03-09T05:13:52.208Z,0.00
2019-03-09T05:14:52.361Z,0.00
2019-03-09T05:15:52.480Z,0.00
2019-03-09T05:16:52.626Z,0.00
2019-03-09T05:17:52.791Z,0.00
2019-03-09T05:18:53.017Z,0.00
2019-03-09T05:19:53.182Z,0.00
2019-03-09T05:20:53.391Z,0.00
2019-03-09T05:21:53.562Z,0.00
2019-03-09T05:22:53.782Z,0.00
2019-03-09T05:23:53.948Z,0.00
2019-03-09T05:24:54.182Z,0.00
2019-03-09T05:25:54.368Z,0.00
2019-03-09T05:26:54.567Z,0.00
2019-03-09T05:27:54.742Z,0.00
2019-03-09T05:28:54.926Z,0.00
2019-03-09T05:29:55.130Z,0.00
2019-03-09T05:30:55.284Z,0.00
2019-03-09T05:31:55.497Z,0.00
2019-03-09T05:32:55.662Z,4.00
2019-03-09T05:33:55.835Z,0.00
2019-03-09T05:34:56.005Z,4.00
2019-03-09T05:35:56.200Z,4.00
2019-03-09T05:36:56.391Z,4.00
2019-03-09T05:37:56.578Z,8.00
2019-03-09T05:38:56.737Z,8.00
2019-03-09T05:39:56.890Z,8.00
2019-03-09T05:40:57.106Z,8.00
2019-03-09T05:41:57.298Z,8.00
2019-03-09T05:42:57.476Z,8.00
2019-03-09T05:43:57.666Z,8.00
2019-03-09T05:44:57.823Z,8.00
2019-03-09T05:45:57.989Z,12.00
2019-03-09T05:46:58.195Z,16.00
2019-03-09T05:47:58.374Z,16.00
2019-03-09T05:48:58.581Z,28.00
2019-03-09T05:49:58.805Z,40.00
2019-03-09T05:50:58.966Z,48.00
2019-03-09T05:51:59.162Z,48.00
2019-03-09T05:52:59.350Z,60.00
2019-03-09T05:53:59.506Z,64.00
2019-03-09T05:54:59.709Z,72.00
2019-03-09T05:55:59.865Z,96.00
2019-03-09T05:57:00.011Z,112.00
2019-03-09T05:58:00.162Z,136.00
2019-03-09T05:59:00.327Z,160.00
2019-03-09T06:00:00.472Z,184.00
2019-03-09T06:01:00.646Z,204.00
2019-03-09T06:02:00.840Z,232.00
2019-03-09T06:03:01.014Z,252.00
2019-03-09T06:04:01.158Z,260.00
2019-03-09T06:05:01.395Z,288.00
2019-03-09T06:06:01.539Z,316.00
2019-03-09T06:07:01.691Z,344.00
2019-03-09T06:08:01.866Z,356.00
2019-03-09T06:09:02.072Z,388.00
2019-03-09T06:10:02.233Z,424.00
2019-03-09T06:11:02.422Z,460.00
2019-03-09T06:12:02.596Z,492.00
2019-03-09T06:13:02.837Z,512.00
2019-03-09T06:14:02.884Z,540.00
2019-03-09T06:15:03.057Z,584.00
2019-03-09T06:16:03.192Z,660.00
2019-03-09T06:17:03.396Z,648.00
2019-03-09T06:18:03.584Z,688.00
2019-03-09T06:19:03.792Z,792.00
2019-03-09T06:20:03.959Z,796.00
2019-03-09T06:21:04.117Z,836.00
2019-03-09T06:22:04.283Z,888.00
2019-03-09T06:23:04.481Z,944.00
2019-03-09T06:24:04.644Z,1000.00
2019-03-09T06:25:04.825Z,1028.00
2019-03-09T06:26:05.053Z,1076.00
2019-03-09T06:27:05.231Z,1120.00
2019-03-09T06:28:05.461Z,1160.00
2019-03-09T06:29:05.653Z,1216.00
2019-03-09T06:30:05.829Z,1244.00
2019-03-09T06:31:06.000Z,1296.00
2019-03-09T06:32:06.173Z,1344.00
2019-03-09T06:33:06.375Z,1400.00
2019-03-09T06:34:06.556Z,1484.00
2019-03-09T06:35:06.869Z,1596.00
2019-03-09T06:36:06.905Z,1684.00
2019-03-09T06:37:07.121Z,1756.00
2019-03-09T06:38:07.296Z,1884.00
2019-03-09T06:39:07.472Z,1980.00
2019-03-09T06:40:07.653Z,1884.00
2019-03-09T06:41:07.835Z,2052.00
2019-03-09T06:42:08.002Z,2112.00
2019-03-09T06:43:08.206Z,2160.00
2019-03-09T06:44:08.356Z,2132.00
2019-03-09T06:45:08.573Z,2148.00
2019-03-09T06:46:08.761Z,2264.00
2019-03-09T06:47:08.909Z,2504.00
2019-03-09T06:48:09.117Z,2636.00
2019-03-09T06:49:09.279Z,2904.00
2019-03-09T06:50:09.450Z,3048.00
2019-03-09T06:51:09.596Z,2968.00
2019-03-09T06:52:09.736Z,2772.00
2019-03-09T06:53:09.945Z,3864.00
2019-03-09T06:54:10.130Z,4328.00
2019-03-09T06:55:10.283Z,4752.00
2019-03-09T06:56:10.438Z,4476.00
2019-03-09T06:57:13.979Z,4408.00
2019-03-09T06:58:13.508Z,4284.00
2019-03-09T06:59:10.949Z,4172.00
2019-03-09T07:00:11.126Z,4360.00
2019-03-09T07:01:11.246Z,4108.00
2019-03-09T07:02:11.407Z,3780.00
2019-03-09T07:03:11.578Z,3880.00
2019-03-09T07:04:11.706Z,3560.00
2019-03-09T07:05:11.877Z,3252.00
2019-03-09T07:06:12.024Z,3248.00
2019-03-09T07:07:12.164Z,3252.00
2019-03-09T07:08:12.358Z,3268.00
2019-03-09T07:09:12.513Z,3420.00
2019-03-09T07:10:12.664Z,3640.00
2019-03-09T07:11:12.825Z,3980.00
2019-03-09T07:12:12.991Z,4360.00
2019-03-09T07:13:13.212Z,4624.00
2019-03-09T07:14:13.399Z,4592.00
2019-03-09T07:15:13.551Z,4740.00
2019-03-09T07:16:13.777Z,4976.00
2019-03-09T07:17:13.978Z,5264.00
2019-03-09T07:18:14.221Z,5440.00
2019-03-09T07:19:14.402Z,5344.00
2019-03-09T07:20:14.596Z,4900.00
2019-03-09T07:21:14.768Z,4616.00
2019-03-09T07:22:14.928Z,4300.00
2019-03-09T07:23:15.122Z,3916.00
2019-03-09T07:24:15.286Z,3548.00
2019-03-09T07:25:15.443Z,3380.00
2019-03-09T07:26:15.589Z,3428.00
2019-03-09T07:27:15.734Z,3496.00
2019-03-09T07:28:15.931Z,3420.00
2019-03-09T07:29:16.115Z,3240.00
2019-03-09T07:30:16.319Z,3072.00
2019-03-09T07:31:16.566Z,3008.00
2019-03-09T07:32:16.604Z,3040.00
2019-03-09T07:33:16.788Z,3068.00
2019-03-09T07:34:16.936Z,3096.00
2019-03-09T07:35:17.153Z,3116.00
2019-03-09T07:36:17.313Z,3124.00
2019-03-09T07:37:17.547Z,3136.00
2019-03-09T07:38:17.730Z,3176.00
2019-03-09T07:39:17.933Z,3184.00
2019-03-09T07:40:18.157Z,3200.00
2019-03-09T07:41:18.370Z,3264.00
2019-03-09T07:42:18.563Z,3400.00
2019-03-09T07:43:18.773Z,3540.00
2019-03-09T07:44:18.998Z,3624.00
2019-03-09T07:45:19.110Z,3572.00
2019-03-09T07:46:19.288Z,3436.00
2019-03-09T07:47:19.491Z,3324.00
2019-03-09T07:48:19.704Z,3272.00
2019-03-09T07:49:19.891Z,3328.00
2019-03-09T07:50:21.068Z,3420.00
2019-03-09T07:51:20.199Z,3560.00
2019-03-09T07:52:20.418Z,3772.00
2019-03-09T07:53:20.630Z,4020.00
2019-03-09T07:54:20.846Z,4200.00
2019-03-09T07:55:21.054Z,4228.00
2019-03-09T07:56:21.224Z,4084.00
2019-03-09T07:57:21.425Z,3820.00
2019-03-09T07:58:21.606Z,3520.00
2019-03-09T07:59:21.778Z,3236.00
2019-03-09T08:00:21.983Z,3128.00
2019-03-09T08:01:23.954Z,3152.00
2019-03-09T08:02:22.388Z,3176.00
2019-03-09T08:03:22.547Z,3104.00
2019-03-09T08:04:22.726Z,2976.00
2019-03-09T08:05:22.914Z,2912.00
2019-03-09T08:06:23.118Z,2916.00
2019-03-09T08:07:23.261Z,2928.00
2019-03-09T08:08:23.461Z,3000.00
2019-03-09T08:09:24.643Z,3172.00
2019-03-09T08:10:24.819Z,3352.00
2019-03-09T08:11:24.061Z,3484.00
2019-03-09T08:12:24.355Z,3568.00
2019-03-09T08:13:24.447Z,3624.00
2019-03-09T08:14:24.662Z,3596.00
2019-03-09T08:15:24.863Z,3548.00
2019-03-09T08:16:25.024Z,3532.00
2019-03-09T08:17:25.239Z,3532.00
2019-03-09T08:18:25.408Z,3464.00
2019-03-09T08:19:25.617Z,3472.00
2019-03-09T08:20:25.774Z,3624.00
2019-03-09T08:21:26.020Z,3816.00
2019-03-09T08:22:26.063Z,3792.00
2019-03-09T08:23:26.252Z,3588.00
2019-03-09T08:24:26.463Z,3396.00
2019-03-09T08:25:26.646Z,3336.00
2019-03-09T08:26:26.806Z,3268.00
2019-03-09T08:27:27.004Z,3180.00
2019-03-09T08:28:27.184Z,3100.00
2019-03-09T08:29:27.402Z,3128.00
2019-03-09T08:30:27.597Z,3208.00
2019-03-09T08:31:27.771Z,3360.00
2019-03-09T08:32:28.003Z,3596.00
2019-03-09T08:33:28.061Z,3752.00
2019-03-09T08:34:28.278Z,3664.00
2019-03-09T08:35:28.560Z,3484.00
2019-03-09T08:36:28.596Z,3232.00
2019-03-09T08:37:28.765Z,3068.00
2019-03-09T08:38:28.931Z,3108.00
2019-03-09T08:39:30.323Z,3232.00
2019-03-09T08:40:29.333Z,3204.00
2019-03-09T08:41:29.463Z,3156.00
2019-03-09T08:42:29.665Z,3064.00
2019-03-09T08:43:29.835Z,2960.00
2019-03-09T08:44:30.049Z,2920.00
2019-03-09T08:45:30.322Z,2956.00
2019-03-09T08:46:30.321Z,2960.00
2019-03-09T08:47:30.490Z,2816.00
2019-03-09T08:48:30.666Z,2660.00
2019-03-09T08:49:30.809Z,2488.00
2019-03-09T08:50:30.970Z,2256.00
2019-03-09T08:51:31.119Z,2104.00
2019-03-09T08:52:31.282Z,2036.00
2019-03-09T08:53:31.517Z,2072.00
2019-03-09T08:54:31.723Z,2184.00
2019-03-09T08:55:31.884Z,2252.00
2019-03-09T08:56:33.567Z,2372.00
2019-03-09T08:57:33.219Z,2556.00
2019-03-09T08:58:32.350Z,2592.00
2019-03-09T08:59:32.494Z,2616.00
2019-03-09T09:00:32.905Z,2744.00
2019-03-09T09:01:33.000Z,2932.00
2019-03-09T09:02:33.141Z,3300.00
2019-03-09T09:03:33.300Z,3704.00
2019-03-09T09:04:34.724Z,3824.00
2019-03-09T09:05:34.614Z,3612.00
2019-03-09T09:06:34.795Z,3420.00
2019-03-09T09:07:33.915Z,3340.00
2019-03-09T09:08:34.075Z,3272.00
2019-03-09T09:09:34.365Z,3208.00
2019-03-09T09:10:34.393Z,3252.00
2019-03-09T09:11:34.585Z,3204.00
2019-03-09T09:12:34.713Z,3272.00
2019-03-09T09:13:34.860Z,3444.00
2019-03-09T09:14:35.097Z,3724.00
2019-03-09T09:15:35.289Z,4076.00
2019-03-09T09:16:35.452Z,4636.00
2019-03-09T09:17:35.615Z,5624.00
2019-03-09T09:18:35.800Z,6808.00
2019-03-09T09:19:35.981Z,7840.00
2019-03-09T09:20:36.117Z,8808.00
2019-03-09T09:21:36.314Z,7556.00
2019-03-09T09:22:36.521Z,6540.00
2019-03-09T09:23:36.667Z,5904.00
2019-03-09T09:24:36.841Z,5340.00
2019-03-09T09:25:37.019Z,4804.00
2019-03-09T09:26:37.204Z,4944.00
2019-03-09T09:27:37.412Z,4920.00
2019-03-09T09:28:37.556Z,5848.00
2019-03-09T09:29:37.708Z,6280.00
2019-03-09T09:30:37.903Z,6500.00
2019-03-09T09:31:38.055Z,7016.00
2019-03-09T09:32:38.246Z,7196.00
2019-03-09T09:33:38.406Z,7628.00
2019-03-09T09:34:38.575Z,7588.00
2019-03-09T09:35:38.756Z,7068.00
2019-03-09T09:36:38.897Z,5652.00
2019-03-09T09:37:39.131Z,7288.00
2019-03-09T09:38:39.365Z,5508.00
2019-03-09T09:39:39.526Z,7176.00
2019-03-09T09:40:39.661Z,8308.00
2019-03-09T09:41:39.903Z,8324.00
2019-03-09T09:42:40.051Z,8156.00
2019-03-09T09:43:40.201Z,8008.00
2019-03-09T09:44:40.382Z,7904.00
2019-03-09T09:45:40.522Z,7364.00
2019-03-09T09:46:40.693Z,7348.00
2019-03-09T09:47:42.528Z,7152.00
2019-03-09T09:48:40.976Z,7160.00
2019-03-09T09:49:41.237Z,6156.00
2019-03-09T09:50:41.253Z,6412.00
2019-03-09T09:51:41.390Z,6496.00
2019-03-09T09:52:41.589Z,6308.00
2019-03-09T09:53:41.748Z,5412.00
2019-03-09T09:54:41.941Z,4676.00
2019-03-09T09:55:42.085Z,4144.00
2019-03-09T09:56:42.291Z,3816.00
2019-03-09T09:57:42.458Z,3932.00
2019-03-09T09:58:42.623Z,4472.00
2019-03-09T09:59:42.853Z,4900.00
2019-03-09T10:00:43.058Z,4916.00
2019-03-09T10:01:43.216Z,4744.00
2019-03-09T10:02:43.389Z,4808.00
2019-03-09T10:03:43.567Z,4744.00
2019-03-09T10:04:43.740Z,4836.00
2019-03-09T10:05:43.942Z,5172.00
2019-03-09T10:06:44.086Z,5632.00
2019-03-09T10:07:44.303Z,5904.00
2019-03-09T10:08:44.535Z,6108.00
2019-03-09T10:09:44.593Z,5956.00
2019-03-09T10:10:44.787Z,5604.00
2019-03-09T10:11:44.989Z,5124.00
2019-03-09T10:12:45.149Z,4728.00
2019-03-09T10:13:45.320Z,4488.00
2019-03-09T10:14:45.458Z,4304.00
2019-03-09T10:15:45.623Z,4224.00
2019-03-09T10:16:45.780Z,4004.00
2019-03-09T10:17:45.947Z,3796.00
2019-03-09T10:18:46.120Z,3808.00
2019-03-09T10:19:46.277Z,3292.00
2019-03-09T10:20:46.449Z,3256.00
2019-03-09T10:21:46.607Z,3472.00
2019-03-09T10:22:46.763Z,3204.00
2019-03-09T10:23:46.940Z,3392.00
2019-03-09T10:24:47.123Z,3724.00
2019-03-09T10:25:47.293Z,3652.00
2019-03-09T10:26:47.464Z,3816.00
2019-03-09T10:27:47.633Z,4416.00
2019-03-09T10:28:47.839Z,5604.00
2019-03-09T10:29:48.026Z,6520.00
2019-03-09T10:30:48.200Z,7112.00
2019-03-09T10:31:48.372Z,8144.00
2019-03-09T10:32:48.562Z,9480.00
2019-03-09T10:33:48.764Z,8368.00
2019-03-09T10:34:48.916Z,9520.00
2019-03-09T10:35:49.068Z,10356.00
2019-03-09T10:36:49.223Z,9444.00
2019-03-09T10:37:49.402Z,8164.00
2019-03-09T10:38:49.624Z,8052.00
2019-03-09T10:39:49.778Z,7972.00
2019-03-09T10:40:50.962Z,8528.00
2019-03-09T10:41:50.120Z,8836.00
2019-03-09T10:42:50.272Z,8052.00
2019-03-09T10:43:50.521Z,7036.00
2019-03-09T10:44:50.560Z,6420.00
2019-03-09T10:45:50.756Z,5944.00
2019-03-09T10:46:51.039Z,5836.00
2019-03-09T10:47:51.082Z,5744.00
2019-03-09T10:48:51.234Z,5668.00
2019-03-09T10:49:51.392Z,5608.00
2019-03-09T10:50:51.569Z,5516.00
2019-03-09T10:51:51.769Z,5464.00
2019-03-09T10:52:51.934Z,5396.00
2019-03-09T10:53:52.104Z,5340.00
2019-03-09T10:54:52.240Z,5304.00
2019-03-09T10:55:52.398Z,5260.00
2019-03-09T10:56:52.616Z,5264.00
2019-03-09T10:57:52.782Z,5264.00
2019-03-09T10:58:52.983Z,5372.00
2019-03-09T10:59:53.133Z,5420.00
2019-03-09T11:00:53.283Z,5436.00
2019-03-09T11:01:53.435Z,5236.00
2019-03-09T11:02:53.595Z,5068.00
2019-03-09T11:03:53.764Z,4968.00
2019-03-09T11:04:53.956Z,4832.00
2019-03-09T11:05:54.150Z,4696.00
2019-03-09T11:06:54.331Z,4696.00
2019-03-09T11:07:55.505Z,4744.00
2019-03-09T11:08:54.646Z,4968.00
2019-03-09T11:09:54.833Z,5036.00
2019-03-09T11:10:55.032Z,5020.00
2019-03-09T11:11:55.233Z,5220.00
2019-03-09T11:12:55.384Z,5440.00
2019-03-09T11:13:55.563Z,5652.00
2019-03-09T11:14:55.741Z,5928.00
2019-03-09T11:15:55.908Z,5988.00
2019-03-09T11:16:56.102Z,5800.00
2019-03-09T11:17:56.318Z,5456.00
2019-03-09T11:18:56.494Z,5212.00
2019-03-09T11:19:56.676Z,5168.00
2019-03-09T11:20:56.828Z,5196.00
2019-03-09T11:21:56.998Z,5312.00
2019-03-09T11:22:57.188Z,5496.00
2019-03-09T11:23:57.394Z,5792.00
2019-03-09T11:25:03.381Z,6012.00
2019-03-09T11:25:59.702Z,6124.00
2019-03-09T11:26:57.928Z,6464.00
2019-03-09T11:27:58.105Z,6844.00
2019-03-09T11:28:58.311Z,7340.00
2019-03-09T11:29:58.491Z,8456.00
2019-03-09T11:30:58.682Z,9008.00
2019-03-09T11:31:58.900Z,9248.00
2019-03-09T11:32:59.091Z,9600.00
2019-03-09T11:33:59.253Z,10816.00
2019-03-09T11:34:59.398Z,11756.00
2019-03-09T11:35:59.606Z,11516.00
2019-03-09T11:36:59.788Z,12576.00
2019-03-09T11:37:59.980Z,12988.00
2019-03-09T11:39:00.138Z,13252.00
2019-03-09T11:40:00.416Z,12988.00
2019-03-09T11:41:00.947Z,13156.00
2019-03-09T11:42:01.676Z,12796.00
2019-03-09T11:43:00.804Z,16640.00
2019-03-09T11:44:00.975Z,13604.00
2019-03-09T11:45:01.135Z,14132.00
2019-03-09T11:46:01.324Z,10792.00
2019-03-09T11:47:01.508Z,10316.00
2019-03-09T11:48:01.693Z,10476.00
2019-03-09T11:49:02.006Z,11116.00
2019-03-09T11:50:02.067Z,11180.00
2019-03-09T11:51:02.254Z,10684.00
2019-03-09T11:52:02.444Z,9852.00
2019-03-09T11:53:02.624Z,9056.00
2019-03-09T11:54:02.820Z,8636.00
2019-03-09T11:55:02.989Z,9200.00
2019-03-09T11:56:03.199Z,8928.00
2019-03-09T11:57:03.373Z,8452.00
2019-03-09T11:58:03.582Z,8544.00
2019-03-09T11:59:03.897Z,8628.00
2019-03-09T12:00:03.927Z,11220.00
2019-03-09T12:01:04.086Z,18080.00
2019-03-09T12:02:04.258Z,12552.00
2019-03-09T12:03:04.451Z,14480.00
2019-03-09T12:04:04.592Z,9904.00
2019-03-09T12:05:04.763Z,12740.00
2019-03-09T12:06:04.991Z,25088.00
2019-03-09T12:07:05.215Z,15968.00
2019-03-09T12:08:05.383Z,22496.00
2019-03-09T12:09:05.579Z,19840.00
2019-03-09T12:10:05.753Z,16416.00
2019-03-09T12:11:05.932Z,12968.00
2019-03-09T12:12:06.095Z,12076.00
2019-03-09T12:13:06.275Z,11416.00
2019-03-09T12:14:06.494Z,26560.00
2019-03-09T12:15:07.637Z,39328.00
2019-03-09T12:16:06.779Z,21024.00
2019-03-09T12:17:12.499Z,30016.00
2019-03-09T12:18:09.108Z,53248.00
2019-03-09T12:19:07.269Z,20992.00
2019-03-09T12:20:07.467Z,22144.00
2019-03-09T12:21:07.650Z,37184.00
2019-03-09T12:22:07.861Z,20448.00
2019-03-09T12:23:08.014Z,24448.00
2019-03-09T12:24:16.024Z,22304.00
2019-03-09T12:25:10.314Z,16448.00
2019-03-09T12:26:08.470Z,17632.00
2019-03-09T12:27:08.609Z,28896.00
2019-03-09T12:28:08.758Z,26752.00
2019-03-09T12:29:08.934Z,28608.00
2019-03-09T12:30:09.101Z,33664.00
2019-03-09T12:31:09.298Z,27456.00
2019-03-09T12:32:09.554Z,21472.00
2019-03-09T12:33:09.587Z,26528.00
2019-03-09T12:34:09.777Z,23808.00
2019-03-09T12:35:09.947Z,44928.00
2019-03-09T12:36:10.216Z,24672.00
2019-03-09T12:37:10.250Z,23072.00
2019-03-09T12:38:10.430Z,92352.00
2019-03-09T12:39:10.607Z,84160.00